Terminal Aerodrome Forecast
Issued by NWS

Home | Current Version | Previous Version | Text Only | Print | Product List | Glossary On
Versions: 1 2 3 4 5 6 7 8 9 10 11 12 13 14 15 16
000
FTUS46 KLOX 232332
TAFSBA
TAF
KSBA 232332Z 2400/2424 26007KT P6SM SKC WS010/35025KT
     FM240500 10004KT P6SM SKC
     FM241200 VRB03KT 6SM HZ SKC
     FM241700 16005KT 5SM HZ SKC=

USA.gov is the U.S. government's official web portal to all federal, state and local government web resources and services.